sensor_id;sensor_type;location;lat;lon;timestamp;P1;durP1;ratioP1;P2;durP2;ratioP2
22715;SDS011;11525;51.152;4.456;2022-10-24T00:00:25;8.02;;;2.30;;
22715;SDS011;11525;51.152;4.456;2022-10-24T00:02:51;6.82;;;2.20;;
22715;SDS011;11525;51.152;4.456;2022-10-24T00:05:17;7.43;;;2.75;;
22715;SDS011;11525;51.152;4.456;2022-10-24T00:07:43;12.88;;;2.20;;
22715;SDS011;11525;51.152;4.456;2022-10-24T00:10:12;8.23;;;2.70;;
22715;SDS011;11525;51.152;4.456;2022-10-24T00:12:38;7.65;;;2.65;;
22715;SDS011;11525;51.152;4.456;2022-10-24T00:15:05;7.93;;;2.90;;
22715;SDS011;11525;51.152;4.456;2022-10-24T00:17:31;10.32;;;2.75;;
22715;SDS011;11525;51.152;4.456;2022-10-24T00:19:58;5.72;;;2.97;;
22715;SDS011;11525;51.152;4.456;2022-10-24T00:22:24;10.77;;;3.38;;
22715;SDS011;11525;51.152;4.456;2022-10-24T00:24:51;8.10;;;2.75;;
22715;SDS011;11525;51.152;4.456;2022-10-24T00:27:18;5.97;;;2.60;;
22715;SDS011;11525;51.152;4.456;2022-10-24T00:29:44;9.48;;;3.30;;
22715;SDS011;11525;51.152;4.456;2022-10-24T00:32:10;5.63;;;2.70;;
22715;SDS011;11525;51.152;4.456;2022-10-24T00:34:36;7.95;;;2.80;;
22715;SDS011;11525;51.152;4.456;2022-10-24T00:37:03;9.15;;;2.85;;
22715;SDS011;11525;51.152;4.456;2022-10-24T00:39:29;8.98;;;3.08;;
22715;SDS011;11525;51.152;4.456;2022-10-24T00:41:54;5.85;;;2.72;;
22715;SDS011;11525;51.152;4.456;2022-10-24T00:44:30;7.05;;;3.00;;
22715;SDS011;11525;51.152;4.456;2022-10-24T00:47:09;6.25;;;2.58;;
22715;SDS011;11525;51.152;4.456;2022-10-24T00:52:37;4.57;;;2.83;;
22715;SDS011;11525;51.152;4.456;2022-10-24T00:55:10;8.05;;;2.63;;
22715;SDS011;11525;51.152;4.456;2022-10-24T00:57:48;6.53;;;3.08;;
22715;SDS011;11525;51.152;4.456;2022-10-24T01:00:22;4.30;;;2.28;;
22715;SDS011;11525;51.152;4.456;2022-10-24T01:02:50;6.82;;;2.67;;
22715;SDS011;11525;51.152;4.456;2022-10-24T01:05:16;7.60;;;2.58;;
22715;SDS011;11525;51.152;4.456;2022-10-24T01:07:54;6.50;;;2.88;;
22715;SDS011;11525;51.152;4.456;2022-10-24T01:10:28;9.02;;;2.75;;
22715;SDS011;11525;51.152;4.456;2022-10-24T01:16:18;8.32;;;2.63;;
22715;SDS011;11525;51.152;4.456;2022-10-24T01:18:54;6.60;;;2.42;;
22715;SDS011;11525;51.152;4.456;2022-10-24T01:21:42;11.23;;;3.33;;
22715;SDS011;11525;51.152;4.456;2022-10-24T01:29:54;8.10;;;2.33;;
22715;SDS011;11525;51.152;4.456;2022-10-24T01:40:20;9.80;;;2.20;;
22715;SDS011;11525;51.152;4.456;2022-10-24T01:43:05;7.55;;;2.50;;
22715;SDS011;11525;51.152;4.456;2022-10-24T01:45:35;2.78;;;1.73;;
22715;SDS011;11525;51.152;4.456;2022-10-24T01:48:06;3.65;;;1.83;;
22715;SDS011;11525;51.152;4.456;2022-10-24T01:50:36;6.10;;;2.30;;
22715;SDS011;11525;51.152;4.456;2022-10-24T01:53:05;5.15;;;2.33;;
22715;SDS011;11525;51.152;4.456;2022-10-24T01:55:33;9.27;;;2.30;;
22715;SDS011;11525;51.152;4.456;2022-10-24T01:58:00;8.10;;;2.40;;
22715;SDS011;11525;51.152;4.456;2022-10-24T02:00:26;6.32;;;2.30;;
22715;SDS011;11525;51.152;4.456;2022-10-24T02:02:57;5.72;;;2.20;;
22715;SDS011;11525;51.152;4.456;2022-10-24T02:05:28;9.52;;;2.40;;
22715;SDS011;11525;51.152;4.456;2022-10-24T02:08:02;13.55;;;1.88;;
22715;SDS011;11525;51.152;4.456;2022-10-24T02:10:36;6.45;;;2.10;;
22715;SDS011;11525;51.152;4.456;2022-10-24T02:13:15;6.30;;;2.05;;
22715;SDS011;11525;51.152;4.456;2022-10-24T02:15:54;8.93;;;2.40;;
22715;SDS011;11525;51.152;4.456;2022-10-24T02:18:25;10.00;;;2.30;;
22715;SDS011;11525;51.152;4.456;2022-10-24T02:21:05;21.63;;;2.40;;
22715;SDS011;11525;51.152;4.456;2022-10-24T02:26:29;7.32;;;2.00;;
22715;SDS011;11525;51.152;4.456;2022-10-24T02:28:58;9.80;;;2.50;;
22715;SDS011;11525;51.152;4.456;2022-10-24T02:31:35;7.55;;;1.90;;
22715;SDS011;11525;51.152;4.456;2022-10-24T02:34:06;6.60;;;1.83;;
22715;SDS011;11525;51.152;4.456;2022-10-24T02:36:35;11.40;;;1.98;;
22715;SDS011;11525;51.152;4.456;2022-10-24T02:39:03;9.65;;;2.35;;
22715;SDS011;11525;51.152;4.456;2022-10-24T02:41:32;10.75;;;2.03;;
22715;SDS011;11525;51.152;4.456;2022-10-24T02:44:01;4.72;;;1.75;;
22715;SDS011;11525;51.152;4.456;2022-10-24T02:46:28;13.18;;;2.15;;
22715;SDS011;11525;51.152;4.456;2022-10-24T02:48:56;3.97;;;1.60;;
22715;SDS011;11525;51.152;4.456;2022-10-24T02:51:29;7.65;;;1.63;;
22715;SDS011;11525;51.152;4.456;2022-10-24T02:54:01;8.27;;;2.08;;
22715;SDS011;11525;51.152;4.456;2022-10-24T02:56:28;7.88;;;1.98;;
22715;SDS011;11525;51.152;4.456;2022-10-24T02:58:55;5.97;;;1.80;;
22715;SDS011;11525;51.152;4.456;2022-10-24T03:01:21;7.95;;;1.85;;
22715;SDS011;11525;51.152;4.456;2022-10-24T03:03:47;4.07;;;1.63;;
22715;SDS011;11525;51.152;4.456;2022-10-24T03:06:16;6.75;;;1.90;;
22715;SDS011;11525;51.152;4.456;2022-10-24T03:08:42;12.25;;;2.15;;
22715;SDS011;11525;51.152;4.456;2022-10-24T03:11:08;8.50;;;1.92;;
22715;SDS011;11525;51.152;4.456;2022-10-24T03:13:34;11.23;;;2.53;;
22715;SDS011;11525;51.152;4.456;2022-10-24T03:16:00;11.27;;;2.25;;
22715;SDS011;11525;51.152;4.456;2022-10-24T03:18:26;8.40;;;2.33;;
22715;SDS011;11525;51.152;4.456;2022-10-24T03:20:52;6.93;;;2.00;;
22715;SDS011;11525;51.152;4.456;2022-10-24T03:23:18;10.30;;;2.25;;
22715;SDS011;11525;51.152;4.456;2022-10-24T03:25:45;7.35;;;2.15;;
22715;SDS011;11525;51.152;4.456;2022-10-24T03:28:11;13.25;;;2.30;;
22715;SDS011;11525;51.152;4.456;2022-10-24T03:30:37;7.25;;;2.05;;
22715;SDS011;11525;51.152;4.456;2022-10-24T03:33:03;10.15;;;3.63;;
22715;SDS011;11525;51.152;4.456;2022-10-24T03:35:30;5.03;;;2.30;;
22715;SDS011;11525;51.152;4.456;2022-10-24T03:37:55;5.78;;;2.15;;
22715;SDS011;11525;51.152;4.456;2022-10-24T03:40:21;8.43;;;2.20;;
22715;SDS011;11525;51.152;4.456;2022-10-24T03:42:47;10.23;;;2.10;;
22715;SDS011;11525;51.152;4.456;2022-10-24T03:45:13;8.45;;;2.03;;
22715;SDS011;11525;51.152;4.456;2022-10-24T03:47:39;10.45;;;2.97;;
22715;SDS011;11525;51.152;4.456;2022-10-24T03:50:05;22.15;;;2.50;;
22715;SDS011;11525;51.152;4.456;2022-10-24T03:52:32;9.30;;;2.50;;
22715;SDS011;11525;51.152;4.456;2022-10-24T03:54:58;15.00;;;3.30;;
22715;SDS011;11525;51.152;4.456;2022-10-24T03:57:24;8.60;;;2.10;;
22715;SDS011;11525;51.152;4.456;2022-10-24T03:59:50;7.03;;;2.13;;
22715;SDS011;11525;51.152;4.456;2022-10-24T04:02:16;8.95;;;1.90;;
22715;SDS011;11525;51.152;4.456;2022-10-24T04:04:42;7.80;;;2.20;;
22715;SDS011;11525;51.152;4.456;2022-10-24T04:07:08;6.15;;;2.13;;
22715;SDS011;11525;51.152;4.456;2022-10-24T04:09:33;11.52;;;3.45;;
22715;SDS011;11525;51.152;4.456;2022-10-24T04:11:59;8.93;;;2.25;;
22715;SDS011;11525;51.152;4.456;2022-10-24T04:14:25;13.48;;;2.78;;
22715;SDS011;11525;51.152;4.456;2022-10-24T04:16:51;9.55;;;2.30;;
22715;SDS011;11525;51.152;4.456;2022-10-24T04:19:17;10.00;;;2.17;;
22715;SDS011;11525;51.152;4.456;2022-10-24T04:21:44;11.27;;;2.17;;
22715;SDS011;11525;51.152;4.456;2022-10-24T04:24:12;6.45;;;1.92;;
22715;SDS011;11525;51.152;4.456;2022-10-24T04:26:38;8.98;;;2.30;;
22715;SDS011;11525;51.152;4.456;2022-10-24T04:29:04;11.05;;;1.98;;
22715;SDS011;11525;51.152;4.456;2022-10-24T04:31:30;9.10;;;2.10;;
22715;SDS011;11525;51.152;4.456;2022-10-24T04:33:56;9.15;;;2.28;;
22715;SDS011;11525;51.152;4.456;2022-10-24T04:36:22;10.15;;;2.42;;
22715;SDS011;11525;51.152;4.456;2022-10-24T04:38:49;11.07;;;2.72;;
22715;SDS011;11525;51.152;4.456;2022-10-24T04:41:15;10.95;;;2.50;;
22715;SDS011;11525;51.152;4.456;2022-10-24T04:43:41;7.88;;;2.50;;
22715;SDS011;11525;51.152;4.456;2022-10-24T04:46:07;9.23;;;2.53;;
22715;SDS011;11525;51.152;4.456;2022-10-24T04:48:33;8.18;;;2.38;;
22715;SDS011;11525;51.152;4.456;2022-10-24T04:50:59;10.45;;;2.50;;
22715;SDS011;11525;51.152;4.456;2022-10-24T04:53:25;8.65;;;2.40;;
22715;SDS011;11525;51.152;4.456;2022-10-24T04:55:51;12.50;;;2.67;;
22715;SDS011;11525;51.152;4.456;2022-10-24T04:58:17;10.75;;;2.55;;
22715;SDS011;11525;51.152;4.456;2022-10-24T05:00:43;13.45;;;2.45;;
22715;SDS011;11525;51.152;4.456;2022-10-24T05:03:13;7.45;;;2.53;;
22715;SDS011;11525;51.152;4.456;2022-10-24T05:05:41;11.05;;;2.72;;
22715;SDS011;11525;51.152;4.456;2022-10-24T05:08:06;10.20;;;2.80;;
22715;SDS011;11525;51.152;4.456;2022-10-24T05:10:32;7.35;;;1.98;;
22715;SDS011;11525;51.152;4.456;2022-10-24T05:12:58;8.18;;;2.17;;
22715;SDS011;11525;51.152;4.456;2022-10-24T05:15:25;12.60;;;2.38;;
22715;SDS011;11525;51.152;4.456;2022-10-24T05:17:54;7.32;;;2.15;;
22715;SDS011;11525;51.152;4.456;2022-10-24T05:20:21;11.35;;;2.60;;
22715;SDS011;11525;51.152;4.456;2022-10-24T05:22:47;13.25;;;2.63;;
22715;SDS011;11525;51.152;4.456;2022-10-24T05:25:13;9.48;;;2.47;;
22715;SDS011;11525;51.152;4.456;2022-10-24T05:27:39;10.82;;;2.83;;
22715;SDS011;11525;51.152;4.456;2022-10-24T05:30:05;11.32;;;2.70;;
22715;SDS011;11525;51.152;4.456;2022-10-24T05:32:32;10.57;;;2.70;;
22715;SDS011;11525;51.152;4.456;2022-10-24T05:34:58;13.45;;;3.13;;
22715;SDS011;11525;51.152;4.456;2022-10-24T05:37:24;14.05;;;3.15;;
22715;SDS011;11525;51.152;4.456;2022-10-24T05:39:50;11.18;;;2.85;;
22715;SDS011;11525;51.152;4.456;2022-10-24T05:42:16;13.25;;;2.88;;
22715;SDS011;11525;51.152;4.456;2022-10-24T05:44:42;11.05;;;2.45;;
22715;SDS011;11525;51.152;4.456;2022-10-24T05:47:08;14.07;;;3.50;;
22715;SDS011;11525;51.152;4.456;2022-10-24T05:49:34;17.67;;;2.95;;
22715;SDS011;11525;51.152;4.456;2022-10-24T05:52:00;14.05;;;3.00;;
22715;SDS011;11525;51.152;4.456;2022-10-24T05:54:26;8.65;;;2.55;;
22715;SDS011;11525;51.152;4.456;2022-10-24T05:56:52;15.95;;;3.75;;
22715;SDS011;11525;51.152;4.456;2022-10-24T05:59:17;11.90;;;3.20;;
22715;SDS011;11525;51.152;4.456;2022-10-24T06:01:43;11.15;;;2.03;;
22715;SDS011;11525;51.152;4.456;2022-10-24T06:04:10;16.50;;;3.90;;
22715;SDS011;11525;51.152;4.456;2022-10-24T06:06:40;13.30;;;3.25;;
22715;SDS011;11525;51.152;4.456;2022-10-24T06:09:08;15.52;;;3.08;;
22715;SDS011;11525;51.152;4.456;2022-10-24T06:11:34;13.15;;;3.30;;
22715;SDS011;11525;51.152;4.456;2022-10-24T06:14:00;11.13;;;2.97;;
22715;SDS011;11525;51.152;4.456;2022-10-24T06:16:27;17.10;;;3.33;;
22715;SDS011;11525;51.152;4.456;2022-10-24T06:18:56;11.27;;;2.78;;
22715;SDS011;11525;51.152;4.456;2022-10-24T06:21:22;10.48;;;2.70;;
22715;SDS011;11525;51.152;4.456;2022-10-24T06:23:49;12.20;;;3.28;;
22715;SDS011;11525;51.152;4.456;2022-10-24T06:26:16;19.38;;;3.53;;
22715;SDS011;11525;51.152;4.456;2022-10-24T06:28:42;18.10;;;3.45;;
22715;SDS011;11525;51.152;4.456;2022-10-24T06:31:09;15.95;;;3.28;;
22715;SDS011;11525;51.152;4.456;2022-10-24T06:33:37;17.17;;;3.67;;
22715;SDS011;11525;51.152;4.456;2022-10-24T06:36:04;14.55;;;3.00;;
22715;SDS011;11525;51.152;4.456;2022-10-24T06:38:34;13.32;;;2.80;;
22715;SDS011;11525;51.152;4.456;2022-10-24T06:41:05;18.00;;;3.45;;
22715;SDS011;11525;51.152;4.456;2022-10-24T06:43:32;20.52;;;3.47;;
22715;SDS011;11525;51.152;4.456;2022-10-24T06:46:03;17.58;;;3.33;;
22715;SDS011;11525;51.152;4.456;2022-10-24T06:48:34;17.35;;;3.15;;
22715;SDS011;11525;51.152;4.456;2022-10-24T06:51:02;12.70;;;2.83;;
22715;SDS011;11525;51.152;4.456;2022-10-24T06:53:29;12.70;;;3.20;;
22715;SDS011;11525;51.152;4.456;2022-10-24T06:56:03;13.40;;;3.33;;
22715;SDS011;11525;51.152;4.456;2022-10-24T06:58:35;12.25;;;2.75;;
22715;SDS011;11525;51.152;4.456;2022-10-24T07:01:09;19.75;;;3.28;;
22715;SDS011;11525;51.152;4.456;2022-10-24T07:03:38;13.27;;;2.97;;
22715;SDS011;11525;51.152;4.456;2022-10-24T07:06:06;12.45;;;2.75;;
22715;SDS011;11525;51.152;4.456;2022-10-24T07:08:39;10.27;;;3.22;;
22715;SDS011;11525;51.152;4.456;2022-10-24T07:11:05;13.77;;;2.58;;
22715;SDS011;11525;51.152;4.456;2022-10-24T07:13:32;9.55;;;2.28;;
22715;SDS011;11525;51.152;4.456;2022-10-24T07:15:58;12.00;;;2.55;;
22715;SDS011;11525;51.152;4.456;2022-10-24T07:18:24;9.50;;;2.28;;
22715;SDS011;11525;51.152;4.456;2022-10-24T07:20:50;14.70;;;2.90;;
22715;SDS011;11525;51.152;4.456;2022-10-24T07:23:15;14.88;;;2.97;;
22715;SDS011;11525;51.152;4.456;2022-10-24T07:25:42;10.57;;;2.35;;
22715;SDS011;11525;51.152;4.456;2022-10-24T07:28:08;12.10;;;3.22;;
22715;SDS011;11525;51.152;4.456;2022-10-24T07:30:35;11.52;;;2.75;;
22715;SDS011;11525;51.152;4.456;2022-10-24T07:33:02;8.73;;;2.08;;
22715;SDS011;11525;51.152;4.456;2022-10-24T07:35:28;12.50;;;2.40;;
22715;SDS011;11525;51.152;4.456;2022-10-24T07:37:54;11.55;;;2.70;;
22715;SDS011;11525;51.152;4.456;2022-10-24T07:40:20;8.38;;;2.30;;
22715;SDS011;11525;51.152;4.456;2022-10-24T07:42:46;10.07;;;2.53;;
22715;SDS011;11525;51.152;4.456;2022-10-24T07:45:12;10.35;;;2.28;;
22715;SDS011;11525;51.152;4.456;2022-10-24T07:47:39;12.10;;;2.30;;
22715;SDS011;11525;51.152;4.456;2022-10-24T07:50:05;11.05;;;2.38;;
22715;SDS011;11525;51.152;4.456;2022-10-24T07:52:31;9.80;;;2.13;;
22715;SDS011;11525;51.152;4.456;2022-10-24T07:54:57;9.88;;;2.20;;
22715;SDS011;11525;51.152;4.456;2022-10-24T07:57:23;12.10;;;2.25;;
22715;SDS011;11525;51.152;4.456;2022-10-24T07:59:49;14.07;;;2.60;;
22715;SDS011;11525;51.152;4.456;2022-10-24T08:02:15;11.95;;;2.80;;
22715;SDS011;11525;51.152;4.456;2022-10-24T08:04:42;8.32;;;2.38;;
22715;SDS011;11525;51.152;4.456;2022-10-24T08:07:08;9.00;;;2.33;;
22715;SDS011;11525;51.152;4.456;2022-10-24T08:09:38;9.70;;;2.17;;
22715;SDS011;11525;51.152;4.456;2022-10-24T08:12:04;11.68;;;2.40;;
22715;SDS011;11525;51.152;4.456;2022-10-24T08:14:30;12.45;;;2.47;;
22715;SDS011;11525;51.152;4.456;2022-10-24T08:16:57;8.07;;;2.00;;
22715;SDS011;11525;51.152;4.456;2022-10-24T08:19:22;7.57;;;2.30;;
22715;SDS011;11525;51.152;4.456;2022-10-24T08:21:48;10.82;;;2.40;;
22715;SDS011;11525;51.152;4.456;2022-10-24T08:24:16;9.13;;;2.45;;
22715;SDS011;11525;51.152;4.456;2022-10-24T08:26:43;15.40;;;3.20;;
22715;SDS011;11525;51.152;4.456;2022-10-24T08:29:09;13.05;;;2.53;;
22715;SDS011;11525;51.152;4.456;2022-10-24T08:31:36;10.40;;;3.13;;
22715;SDS011;11525;51.152;4.456;2022-10-24T08:34:02;14.32;;;3.17;;
22715;SDS011;11525;51.152;4.456;2022-10-24T08:36:31;17.05;;;2.92;;
22715;SDS011;11525;51.152;4.456;2022-10-24T08:38:58;9.15;;;2.70;;
22715;SDS011;11525;51.152;4.456;2022-10-24T08:41:32;13.05;;;2.95;;
22715;SDS011;11525;51.152;4.456;2022-10-24T08:55:21;11.60;;;2.72;;
22715;SDS011;11525;51.152;4.456;2022-10-24T08:57:48;12.85;;;3.30;;
22715;SDS011;11525;51.152;4.456;2022-10-24T09:00:22;10.40;;;3.67;;
22715;SDS011;11525;51.152;4.456;2022-10-24T09:03:17;9.05;;;2.35;;
22715;SDS011;11525;51.152;4.456;2022-10-24T09:05:54;11.20;;;3.03;;
22715;SDS011;11525;51.152;4.456;2022-10-24T09:11:04;10.18;;;2.90;;
22715;SDS011;11525;51.152;4.456;2022-10-24T09:13:33;9.07;;;2.50;;
22715;SDS011;11525;51.152;4.456;2022-10-24T09:16:03;16.13;;;3.55;;
22715;SDS011;11525;51.152;4.456;2022-10-24T09:21:02;13.40;;;3.00;;
22715;SDS011;11525;51.152;4.456;2022-10-24T09:23:31;17.27;;;3.38;;
22715;SDS011;11525;51.152;4.456;2022-10-24T09:26:01;14.48;;;3.95;;
22715;SDS011;11525;51.152;4.456;2022-10-24T09:28:32;14.20;;;3.25;;
22715;SDS011;11525;51.152;4.456;2022-10-24T09:31:03;10.98;;;2.78;;
22715;SDS011;11525;51.152;4.456;2022-10-24T09:33:40;13.50;;;2.92;;
22715;SDS011;11525;51.152;4.456;2022-10-24T09:36:09;16.63;;;4.03;;
22715;SDS011;11525;51.152;4.456;2022-10-24T09:38:38;17.20;;;3.60;;
22715;SDS011;11525;51.152;4.456;2022-10-24T09:41:06;13.43;;;2.80;;
22715;SDS011;11525;51.152;4.456;2022-10-24T09:43:50;20.30;;;3.35;;
22715;SDS011;11525;51.152;4.456;2022-10-24T09:46:23;14.85;;;3.25;;
22715;SDS011;11525;51.152;4.456;2022-10-24T09:52:01;16.33;;;3.88;;
22715;SDS011;11525;51.152;4.456;2022-10-24T09:54:31;13.50;;;3.00;;
22715;SDS011;11525;51.152;4.456;2022-10-24T10:02:31;12.85;;;2.58;;
22715;SDS011;11525;51.152;4.456;2022-10-24T10:07:31;10.80;;;2.95;;
22715;SDS011;11525;51.152;4.456;2022-10-24T10:10:04;16.23;;;3.45;;
22715;SDS011;11525;51.152;4.456;2022-10-24T10:15:02;14.20;;;3.40;;
22715;SDS011;11525;51.152;4.456;2022-10-24T10:17:48;9.98;;;2.80;;
22715;SDS011;11525;51.152;4.456;2022-10-24T10:20:38;15.55;;;3.10;;
22715;SDS011;11525;51.152;4.456;2022-10-24T10:25:47;17.60;;;3.35;;
22715;SDS011;11525;51.152;4.456;2022-10-24T10:28:20;17.45;;;4.53;;
22715;SDS011;11525;51.152;4.456;2022-10-24T10:30:48;13.30;;;3.00;;
22715;SDS011;11525;51.152;4.456;2022-10-24T10:33:22;11.13;;;3.25;;
22715;SDS011;11525;51.152;4.456;2022-10-24T10:36:09;13.00;;;2.45;;
22715;SDS011;11525;51.152;4.456;2022-10-24T10:41:18;11.63;;;2.78;;
22715;SDS011;11525;51.152;4.456;2022-10-24T10:44:04;9.80;;;2.17;;
22715;SDS011;11525;51.152;4.456;2022-10-24T10:49:37;8.35;;;2.00;;
22715;SDS011;11525;51.152;4.456;2022-10-24T10:52:05;10.02;;;2.33;;
22715;SDS011;11525;51.152;4.456;2022-10-24T11:00:18;17.38;;;3.45;;
22715;SDS011;11525;51.152;4.456;2022-10-24T11:05:53;13.82;;;2.65;;
22715;SDS011;11525;51.152;4.456;2022-10-24T11:08:38;12.13;;;3.20;;
22715;SDS011;11525;51.152;4.456;2022-10-24T11:11:18;10.00;;;2.95;;
22715;SDS011;11525;51.152;4.456;2022-10-24T11:16:27;13.32;;;3.13;;
22715;SDS011;11525;51.152;4.456;2022-10-24T11:18:55;14.55;;;3.05;;
22715;SDS011;11525;51.152;4.456;2022-10-24T11:21:28;13.90;;;2.65;;
22715;SDS011;11525;51.152;4.456;2022-10-24T11:24:05;12.30;;;3.65;;
22715;SDS011;11525;51.152;4.456;2022-10-24T11:26:41;13.95;;;2.90;;
22715;SDS011;11525;51.152;4.456;2022-10-24T11:31:52;12.00;;;2.53;;
22715;SDS011;11525;51.152;4.456;2022-10-24T11:34:46;16.17;;;3.20;;
22715;SDS011;11525;51.152;4.456;2022-10-24T11:37:23;13.45;;;2.63;;
22715;SDS011;11525;51.152;4.456;2022-10-24T11:40:06;10.50;;;2.55;;
22715;SDS011;11525;51.152;4.456;2022-10-24T11:46:03;12.27;;;3.13;;
22715;SDS011;11525;51.152;4.456;2022-10-24T11:48:35;17.15;;;3.25;;
22715;SDS011;11525;51.152;4.456;2022-10-24T11:51:27;11.32;;;2.60;;
22715;SDS011;11525;51.152;4.456;2022-10-24T11:54:02;8.52;;;2.33;;
22715;SDS011;11525;51.152;4.456;2022-10-24T11:56:36;11.23;;;2.45;;
22715;SDS011;11525;51.152;4.456;2022-10-24T11:59:14;7.97;;;2.50;;
22715;SDS011;11525;51.152;4.456;2022-10-24T12:04:31;7.00;;;2.22;;
22715;SDS011;11525;51.152;4.456;2022-10-24T12:15:53;9.27;;;2.35;;
22715;SDS011;11525;51.152;4.456;2022-10-24T12:18:38;10.70;;;2.30;;
22715;SDS011;11525;51.152;4.456;2022-10-24T12:21:21;8.88;;;2.65;;
22715;SDS011;11525;51.152;4.456;2022-10-24T12:24:00;7.07;;;2.25;;
22715;SDS011;11525;51.152;4.456;2022-10-24T12:26:30;7.57;;;2.50;;
22715;SDS011;11525;51.152;4.456;2022-10-24T12:28:59;10.20;;;2.72;;
22715;SDS011;11525;51.152;4.456;2022-10-24T12:39:28;12.18;;;2.97;;
22715;SDS011;11525;51.152;4.456;2022-10-24T12:41:59;9.95;;;2.83;;
22715;SDS011;11525;51.152;4.456;2022-10-24T12:46:57;7.90;;;2.42;;
22715;SDS011;11525;51.152;4.456;2022-10-24T12:49:46;9.23;;;2.10;;
22715;SDS011;11525;51.152;4.456;2022-10-24T12:55:24;11.25;;;2.22;;
22715;SDS011;11525;51.152;4.456;2022-10-24T12:58:29;7.20;;;2.10;;
22715;SDS011;11525;51.152;4.456;2022-10-24T13:00:59;13.40;;;2.10;;
22715;SDS011;11525;51.152;4.456;2022-10-24T13:06:25;10.15;;;2.30;;
22715;SDS011;11525;51.152;4.456;2022-10-24T13:09:20;7.85;;;2.15;;
22715;SDS011;11525;51.152;4.456;2022-10-24T13:17:57;8.38;;;2.00;;
22715;SDS011;11525;51.152;4.456;2022-10-24T13:20:45;8.40;;;1.80;;
22715;SDS011;11525;51.152;4.456;2022-10-24T13:23:21;9.30;;;1.88;;
22715;SDS011;11525;51.152;4.456;2022-10-24T13:25:54;10.60;;;2.53;;
22715;SDS011;11525;51.152;4.456;2022-10-24T13:30:48;11.43;;;2.03;;
22715;SDS011;11525;51.152;4.456;2022-10-24T13:33:51;8.48;;;2.20;;
22715;SDS011;11525;51.152;4.456;2022-10-24T13:36:13;7.68;;;1.73;;
22715;SDS011;11525;51.152;4.456;2022-10-24T13:43:59;9.55;;;2.20;;
22715;SDS011;11525;51.152;4.456;2022-10-24T13:46:46;5.82;;;2.20;;
22715;SDS011;11525;51.152;4.456;2022-10-24T13:49:18;9.57;;;1.83;;
22715;SDS011;11525;51.152;4.456;2022-10-24T13:52:51;7.00;;;1.50;;
22715;SDS011;11525;51.152;4.456;2022-10-24T13:55:12;8.50;;;1.73;;
22715;SDS011;11525;51.152;4.456;2022-10-24T13:57:52;7.38;;;1.67;;
22715;SDS011;11525;51.152;4.456;2022-10-24T14:00:43;6.90;;;1.60;;
22715;SDS011;11525;51.152;4.456;2022-10-24T14:03:15;3.50;;;1.50;;
22715;SDS011;11525;51.152;4.456;2022-10-24T14:05:47;7.78;;;1.83;;
22715;SDS011;11525;51.152;4.456;2022-10-24T14:11:08;6.03;;;1.55;;
22715;SDS011;11525;51.152;4.456;2022-10-24T14:13:46;6.72;;;1.27;;
22715;SDS011;11525;51.152;4.456;2022-10-24T14:16:15;3.33;;;1.60;;
22715;SDS011;11525;51.152;4.456;2022-10-24T14:18:41;4.78;;;2.05;;
22715;SDS011;11525;51.152;4.456;2022-10-24T14:21:15;4.72;;;1.48;;
22715;SDS011;11525;51.152;4.456;2022-10-24T14:23:51;4.95;;;1.38;;
22715;SDS011;11525;51.152;4.456;2022-10-24T14:26:19;4.57;;;1.50;;
22715;SDS011;11525;51.152;4.456;2022-10-24T14:28:47;5.43;;;1.48;;
22715;SDS011;11525;51.152;4.456;2022-10-24T14:31:31;7.50;;;1.35;;
22715;SDS011;11525;51.152;4.456;2022-10-24T14:33:59;5.47;;;1.67;;
22715;SDS011;11525;51.152;4.456;2022-10-24T14:36:27;5.05;;;1.50;;
22715;SDS011;11525;51.152;4.456;2022-10-24T14:38:54;9.82;;;1.65;;
22715;SDS011;11525;51.152;4.456;2022-10-24T14:41:30;2.72;;;1.50;;
22715;SDS011;11525;51.152;4.456;2022-10-24T14:44:03;7.05;;;1.67;;
22715;SDS011;11525;51.152;4.456;2022-10-24T14:46:34;3.78;;;1.48;;
22715;SDS011;11525;51.152;4.456;2022-10-24T14:49:17;6.15;;;1.75;;
22715;SDS011;11525;51.152;4.456;2022-10-24T14:51:49;8.20;;;1.90;;
22715;SDS011;11525;51.152;4.456;2022-10-24T14:54:18;10.98;;;2.10;;
22715;SDS011;11525;51.152;4.456;2022-10-24T14:56:46;7.13;;;1.70;;
22715;SDS011;11525;51.152;4.456;2022-10-24T14:59:20;6.63;;;1.60;;
22715;SDS011;11525;51.152;4.456;2022-10-24T15:01:52;6.47;;;2.22;;
22715;SDS011;11525;51.152;4.456;2022-10-24T15:04:35;5.15;;;1.60;;
22715;SDS011;11525;51.152;4.456;2022-10-24T15:10:17;18.73;;;2.35;;
22715;SDS011;11525;51.152;4.456;2022-10-24T15:17:52;12.18;;;3.22;;
22715;SDS011;11525;51.152;4.456;2022-10-24T15:20:24;14.23;;;3.42;;
22715;SDS011;11525;51.152;4.456;2022-10-24T15:22:58;10.07;;;2.83;;
22715;SDS011;11525;51.152;4.456;2022-10-24T15:25:29;7.25;;;2.50;;
22715;SDS011;11525;51.152;4.456;2022-10-24T15:27:58;9.70;;;2.58;;
22715;SDS011;11525;51.152;4.456;2022-10-24T15:30:27;6.97;;;2.08;;
22715;SDS011;11525;51.152;4.456;2022-10-24T15:32:56;4.05;;;2.05;;
22715;SDS011;11525;51.152;4.456;2022-10-24T15:35:24;9.70;;;2.30;;
22715;SDS011;11525;51.152;4.456;2022-10-24T15:37:55;5.72;;;2.20;;
22715;SDS011;11525;51.152;4.456;2022-10-24T15:40:29;6.25;;;2.58;;
22715;SDS011;11525;51.152;4.456;2022-10-24T15:42:58;12.10;;;3.20;;
22715;SDS011;11525;51.152;4.456;2022-10-24T15:45:25;11.05;;;3.20;;
22715;SDS011;11525;51.152;4.456;2022-10-24T15:47:51;6.60;;;2.45;;
22715;SDS011;11525;51.152;4.456;2022-10-24T15:50:19;6.15;;;2.90;;
22715;SDS011;11525;51.152;4.456;2022-10-24T15:52:52;13.15;;;3.22;;
22715;SDS011;11525;51.152;4.456;2022-10-24T15:55:26;16.63;;;8.32;;
22715;SDS011;11525;51.152;4.456;2022-10-24T15:57:53;9.93;;;3.20;;
22715;SDS011;11525;51.152;4.456;2022-10-24T16:00:22;11.38;;;3.67;;
22715;SDS011;11525;51.152;4.456;2022-10-24T16:02:50;11.00;;;3.40;;
22715;SDS011;11525;51.152;4.456;2022-10-24T16:05:19;12.75;;;4.22;;
22715;SDS011;11525;51.152;4.456;2022-10-24T16:07:48;10.75;;;5.25;;
22715;SDS011;11525;51.152;4.456;2022-10-24T16:10:16;12.80;;;3.55;;
22715;SDS011;11525;51.152;4.456;2022-10-24T16:12:47;12.25;;;3.25;;
22715;SDS011;11525;51.152;4.456;2022-10-24T16:15:17;17.73;;;3.80;;
22715;SDS011;11525;51.152;4.456;2022-10-24T16:17:56;17.58;;;3.35;;
22715;SDS011;11525;51.152;4.456;2022-10-24T16:20:23;11.07;;;3.35;;
22715;SDS011;11525;51.152;4.456;2022-10-24T16:22:50;11.93;;;3.40;;
22715;SDS011;11525;51.152;4.456;2022-10-24T16:25:21;18.63;;;3.88;;
22715;SDS011;11525;51.152;4.456;2022-10-24T16:27:51;12.10;;;3.10;;
22715;SDS011;11525;51.152;4.456;2022-10-24T16:30:21;19.67;;;3.80;;
22715;SDS011;11525;51.152;4.456;2022-10-24T16:32:48;21.25;;;4.53;;
22715;SDS011;11525;51.152;4.456;2022-10-24T16:35:17;13.98;;;3.65;;
22715;SDS011;11525;51.152;4.456;2022-10-24T16:37:44;17.10;;;4.03;;
22715;SDS011;11525;51.152;4.456;2022-10-24T16:40:10;14.85;;;3.75;;
22715;SDS011;11525;51.152;4.456;2022-10-24T16:42:38;14.40;;;3.92;;
22715;SDS011;11525;51.152;4.456;2022-10-24T16:45:05;13.68;;;3.63;;
22715;SDS011;11525;51.152;4.456;2022-10-24T16:47:32;13.40;;;4.63;;
22715;SDS011;11525;51.152;4.456;2022-10-24T16:49:59;14.88;;;4.13;;
22715;SDS011;11525;51.152;4.456;2022-10-24T16:52:26;18.20;;;5.30;;
22715;SDS011;11525;51.152;4.456;2022-10-24T16:54:52;19.55;;;5.25;;
22715;SDS011;11525;51.152;4.456;2022-10-24T16:57:22;12.75;;;4.28;;
22715;SDS011;11525;51.152;4.456;2022-10-24T16:59:48;11.45;;;4.03;;
22715;SDS011;11525;51.152;4.456;2022-10-24T17:02:15;18.02;;;4.40;;
22715;SDS011;11525;51.152;4.456;2022-10-24T17:04:42;18.75;;;3.97;;
22715;SDS011;11525;51.152;4.456;2022-10-24T17:07:08;16.63;;;4.20;;
22715;SDS011;11525;51.152;4.456;2022-10-24T17:09:35;10.80;;;3.22;;